Terminal Aerodrome Forecast
Issued by NWS Nashville, TN

Home | Current Version | Previous Version | Text Only | Print | Product List | Glossary On
Versions: 1 2 3 4 5 6 7 8 9 10 11 12 13 14 15 16 17 18 19 20 21 22 23 24 25 26 27 28
891
FTUS44 KOHX 271803 AAA
TAFBNA
TAF AMD
KBNA 271803Z 2718/2818 23010KT P6SM VCTS SCT025CB BKN035
      TEMPO 2718/2720 4SM -TSRA BR OVC025CB
     FM280200 20006KT 4SM -TSRA BR BKN025CB OVC070
     FM280400 20006KT P6SM BKN050
     FM280700 19007KT 3SM -TSRA BR OVC015CB=

USA.gov is the U.S. government's official web portal to all federal, state and local government web resources and services.